Terminal Aerodrome Forecast
Issued by NWS Tuscon, AZ

Home | Current Version | Previous Version | Text Only | Print | Product List | Glossary On
Versions: 1 2 3 4 5 6 7 8 9 10 11 12
000
FTUS45 KTWC 230500 RRA
TAFTUS
TAF
KTUS 230541Z 2306/2406 15006KT P6SM SCT250
     FM231900 29008KT P6SM FEW150 SCT250
     FM232100 31010G18KT P6SM FEW150 SCT250
     FM240200 35006KT P6SM SCT250=

USA.gov is the U.S. government's official web portal to all federal, state and local government web resources and services.